sensor_id;sensor_type;location;lat;lon;timestamp;temperature;humidity
66962;HTU21D;53897;51.126;5.868;2023-05-10T00:00:33;24.20;53.70
66962;HTU21D;53897;51.126;5.868;2023-05-10T00:02:59;24.18;53.67
66962;HTU21D;53897;51.126;5.868;2023-05-10T00:05:25;24.18;53.66
66962;HTU21D;53897;51.126;5.868;2023-05-10T00:07:50;24.17;53.63
66962;HTU21D;53897;51.126;5.868;2023-05-10T00:10:16;24.18;53.63
66962;HTU21D;53897;51.126;5.868;2023-05-10T00:12:42;24.16;53.59
66962;HTU21D;53897;51.126;5.868;2023-05-10T00:15:08;24.15;53.58
66962;HTU21D;53897;51.126;5.868;2023-05-10T00:17:34;24.16;53.56
66962;HTU21D;53897;51.126;5.868;2023-05-10T00:20:00;24.15;53.52
66962;HTU21D;53897;51.126;5.868;2023-05-10T00:22:25;24.13;53.49
66962;HTU21D;53897;51.126;5.868;2023-05-10T00:24:51;24.14;53.50
66962;HTU21D;53897;51.126;5.868;2023-05-10T00:27:17;24.12;53.49
66962;HTU21D;53897;51.126;5.868;2023-05-10T00:29:43;24.12;53.45
66962;HTU21D;53897;51.126;5.868;2023-05-10T00:32:08;24.12;53.43
66962;HTU21D;53897;51.126;5.868;2023-05-10T00:34:34;24.10;53.37
66962;HTU21D;53897;51.126;5.868;2023-05-10T00:37:00;24.11;53.35
66962;HTU21D;53897;51.126;5.868;2023-05-10T00:39:26;24.10;53.31
66962;HTU21D;53897;51.126;5.868;2023-05-10T00:41:54;24.08;53.30
66962;HTU21D;53897;51.126;5.868;2023-05-10T00:44:20;24.08;53.26
66962;HTU21D;53897;51.126;5.868;2023-05-10T00:46:47;24.08;53.25
66962;HTU21D;53897;51.126;5.868;2023-05-10T00:49:13;24.08;53.23
66962;HTU21D;53897;51.126;5.868;2023-05-10T00:51:39;24.06;53.19
66962;HTU21D;53897;51.126;5.868;2023-05-10T00:54:05;24.06;53.17
66962;HTU21D;53897;51.126;5.868;2023-05-10T00:56:31;24.06;53.13
66962;HTU21D;53897;51.126;5.868;2023-05-10T00:58:57;24.05;53.12
66962;HTU21D;53897;51.126;5.868;2023-05-10T01:01:23;24.05;53.10
66962;HTU21D;53897;51.126;5.868;2023-05-10T01:03:53;24.03;53.09
66962;HTU21D;53897;51.126;5.868;2023-05-10T01:06:19;24.03;53.04
66962;HTU21D;53897;51.126;5.868;2023-05-10T01:08:45;24.03;53.01
66962;HTU21D;53897;51.126;5.868;2023-05-10T01:11:11;24.01;52.99
66962;HTU21D;53897;51.126;5.868;2023-05-10T01:13:39;24.01;52.97
66962;HTU21D;53897;51.126;5.868;2023-05-10T01:16:06;24.00;52.95
66962;HTU21D;53897;51.126;5.868;2023-05-10T01:18:39;24.00;52.95
66962;HTU21D;53897;51.126;5.868;2023-05-10T01:21:17;23.99;52.94
66962;HTU21D;53897;51.126;5.868;2023-05-10T01:24:09;23.98;52.89
66962;HTU21D;53897;51.126;5.868;2023-05-10T01:35:03;23.96;52.83
66962;HTU21D;53897;51.126;5.868;2023-05-10T01:37:58;23.94;52.87
66962;HTU21D;53897;51.126;5.868;2023-05-10T01:40:35;23.94;52.88
66962;HTU21D;53897;51.126;5.868;2023-05-10T01:43:05;23.94;52.82
66962;HTU21D;53897;51.126;5.868;2023-05-10T01:45:59;23.92;52.78
66962;HTU21D;53897;51.126;5.868;2023-05-10T01:48:29;23.91;52.82
66962;HTU21D;53897;51.126;5.868;2023-05-10T01:50:57;23.92;52.75
66962;HTU21D;53897;51.126;5.868;2023-05-10T01:53:23;23.92;52.76
66962;HTU21D;53897;51.126;5.868;2023-05-10T01:55:52;23.91;52.77
66962;HTU21D;53897;51.126;5.868;2023-05-10T01:58:30;23.91;52.75
66962;HTU21D;53897;51.126;5.868;2023-05-10T02:01:00;23.89;52.77
66962;HTU21D;53897;51.126;5.868;2023-05-10T02:03:28;23.90;52.79
66962;HTU21D;53897;51.126;5.868;2023-05-10T02:05:57;23.89;52.78
66962;HTU21D;53897;51.126;5.868;2023-05-10T02:08:24;23.88;52.75
66962;HTU21D;53897;51.126;5.868;2023-05-10T02:10:53;23.88;52.73
66962;HTU21D;53897;51.126;5.868;2023-05-10T02:13:21;23.87;52.73
66962;HTU21D;53897;51.126;5.868;2023-05-10T02:15:49;23.86;52.68
66962;HTU21D;53897;51.126;5.868;2023-05-10T02:18:16;23.86;52.69
66962;HTU21D;53897;51.126;5.868;2023-05-10T02:20:45;23.85;52.64
66962;HTU21D;53897;51.126;5.868;2023-05-10T02:23:13;23.85;52.63
66962;HTU21D;53897;51.126;5.868;2023-05-10T02:25:41;23.84;52.64
66962;HTU21D;53897;51.126;5.868;2023-05-10T02:28:10;23.84;52.59
66962;HTU21D;53897;51.126;5.868;2023-05-10T02:30:38;23.83;52.58
66962;HTU21D;53897;51.126;5.868;2023-05-10T02:33:05;23.84;52.58
66962;HTU21D;53897;51.126;5.868;2023-05-10T02:35:32;23.82;52.58
66962;HTU21D;53897;51.126;5.868;2023-05-10T02:37:59;23.82;52.55
66962;HTU21D;53897;51.126;5.868;2023-05-10T02:40:27;23.80;52.53
66962;HTU21D;53897;51.126;5.868;2023-05-10T02:42:56;23.81;52.52
66962;HTU21D;53897;51.126;5.868;2023-05-10T02:45:27;23.81;52.50
66962;HTU21D;53897;51.126;5.868;2023-05-10T02:47:56;23.80;52.50
66962;HTU21D;53897;51.126;5.868;2023-05-10T02:50:26;23.79;52.50
66962;HTU21D;53897;51.126;5.868;2023-05-10T02:53:00;23.79;52.52
66962;HTU21D;53897;51.126;5.868;2023-05-10T02:55:35;23.77;52.48
66962;HTU21D;53897;51.126;5.868;2023-05-10T02:58:03;23.76;52.46
66962;HTU21D;53897;51.126;5.868;2023-05-10T03:00:29;23.77;52.43
66962;HTU21D;53897;51.126;5.868;2023-05-10T03:02:55;23.77;52.44
66962;HTU21D;53897;51.126;5.868;2023-05-10T03:05:21;23.76;52.29
66962;HTU21D;53897;51.126;5.868;2023-05-10T03:07:48;23.73;52.42
66962;HTU21D;53897;51.126;5.868;2023-05-10T03:10:14;23.69;52.53
66962;HTU21D;53897;51.126;5.868;2023-05-10T03:15:32;23.66;52.71
66962;HTU21D;53897;51.126;5.868;2023-05-10T03:18:05;23.64;52.80
66962;HTU21D;53897;51.126;5.868;2023-05-10T03:20:50;23.61;52.88
66962;HTU21D;53897;51.126;5.868;2023-05-10T03:23:25;23.61;52.91
66962;HTU21D;53897;51.126;5.868;2023-05-10T03:25:52;23.59;52.93
66962;HTU21D;53897;51.126;5.868;2023-05-10T03:28:20;23.58;52.95
66962;HTU21D;53897;51.126;5.868;2023-05-10T03:30:47;23.57;52.98
66962;HTU21D;53897;51.126;5.868;2023-05-10T03:33:13;23.55;53.01
66962;HTU21D;53897;51.126;5.868;2023-05-10T03:35:42;23.56;53.00
66962;HTU21D;53897;51.126;5.868;2023-05-10T03:38:10;23.56;53.02
66962;HTU21D;53897;51.126;5.868;2023-05-10T03:40:35;23.54;53.05
66962;HTU21D;53897;51.126;5.868;2023-05-10T03:43:01;23.52;53.09
66962;HTU21D;53897;51.126;5.868;2023-05-10T03:45:27;23.49;53.17
66962;HTU21D;53897;51.126;5.868;2023-05-10T03:47:53;23.49;53.25
66962;HTU21D;53897;51.126;5.868;2023-05-10T03:50:19;23.46;53.27
66962;HTU21D;53897;51.126;5.868;2023-05-10T03:52:45;23.44;53.30
66962;HTU21D;53897;51.126;5.868;2023-05-10T03:55:11;23.43;53.36
66962;HTU21D;53897;51.126;5.868;2023-05-10T03:57:37;23.42;53.42
66962;HTU21D;53897;51.126;5.868;2023-05-10T04:00:03;23.40;53.47
66962;HTU21D;53897;51.126;5.868;2023-05-10T04:02:40;23.38;53.52
66962;HTU21D;53897;51.126;5.868;2023-05-10T04:05:08;23.36;53.56
66962;HTU21D;53897;51.126;5.868;2023-05-10T04:07:34;23.37;53.62
66962;HTU21D;53897;51.126;5.868;2023-05-10T04:10:00;23.35;53.62
66962;HTU21D;53897;51.126;5.868;2023-05-10T04:12:26;23.35;53.62
66962;HTU21D;53897;51.126;5.868;2023-05-10T04:14:52;23.35;53.59
66962;HTU21D;53897;51.126;5.868;2023-05-10T04:17:17;23.34;53.59
66962;HTU21D;53897;51.126;5.868;2023-05-10T04:19:43;23.35;53.59
66962;HTU21D;53897;51.126;5.868;2023-05-10T04:22:08;23.36;53.59
66962;HTU21D;53897;51.126;5.868;2023-05-10T04:24:34;23.35;53.56
66962;HTU21D;53897;51.126;5.868;2023-05-10T04:27:00;23.36;53.52
66962;HTU21D;53897;51.126;5.868;2023-05-10T04:29:26;23.35;53.52
66962;HTU21D;53897;51.126;5.868;2023-05-10T04:31:52;23.35;53.56
66962;HTU21D;53897;51.126;5.868;2023-05-10T04:34:21;23.35;53.55
66962;HTU21D;53897;51.126;5.868;2023-05-10T04:36:46;23.36;53.48
66962;HTU21D;53897;51.126;5.868;2023-05-10T04:39:12;23.36;53.48
66962;HTU21D;53897;51.126;5.868;2023-05-10T04:41:39;23.35;53.50
66962;HTU21D;53897;51.126;5.868;2023-05-10T04:44:05;23.34;53.52
66962;HTU21D;53897;51.126;5.868;2023-05-10T04:46:31;23.34;53.53
66962;HTU21D;53897;51.126;5.868;2023-05-10T04:48:56;23.32;53.57
66962;HTU21D;53897;51.126;5.868;2023-05-10T04:51:22;23.30;53.59
66962;HTU21D;53897;51.126;5.868;2023-05-10T04:53:48;23.31;53.61
66962;HTU21D;53897;51.126;5.868;2023-05-10T04:56:13;23.32;53.56
66962;HTU21D;53897;51.126;5.868;2023-05-10T04:58:39;23.34;53.51
66962;HTU21D;53897;51.126;5.868;2023-05-10T05:01:08;23.35;53.48
66962;HTU21D;53897;51.126;5.868;2023-05-10T05:03:34;23.36;53.43
66962;HTU21D;53897;51.126;5.868;2023-05-10T05:06:00;23.37;53.38
66962;HTU21D;53897;51.126;5.868;2023-05-10T05:08:26;23.37;53.38
66962;HTU21D;53897;51.126;5.868;2023-05-10T05:10:52;23.37;53.40
66962;HTU21D;53897;51.126;5.868;2023-05-10T05:13:18;23.40;53.38
66962;HTU21D;53897;51.126;5.868;2023-05-10T05:15:44;23.41;53.33
66962;HTU21D;53897;51.126;5.868;2023-05-10T05:18:10;23.43;53.36
66962;HTU21D;53897;51.126;5.868;2023-05-10T05:20:35;23.45;53.36
66962;HTU21D;53897;51.126;5.868;2023-05-10T05:23:01;23.46;53.35
66962;HTU21D;53897;51.126;5.868;2023-05-10T05:25:27;23.49;53.34
66962;HTU21D;53897;51.126;5.868;2023-05-10T05:27:53;23.50;53.36
66962;HTU21D;53897;51.126;5.868;2023-05-10T05:30:19;23.52;53.36
66962;HTU21D;53897;51.126;5.868;2023-05-10T05:32:44;23.53;53.30
66962;HTU21D;53897;51.126;5.868;2023-05-10T05:35:10;23.53;53.24
66962;HTU21D;53897;51.126;5.868;2023-05-10T05:37:36;23.54;53.23
66962;HTU21D;53897;51.126;5.868;2023-05-10T05:40:02;23.55;53.22
66962;HTU21D;53897;51.126;5.868;2023-05-10T05:42:28;23.55;53.18
66962;HTU21D;53897;51.126;5.868;2023-05-10T05:44:54;23.55;53.13
66962;HTU21D;53897;51.126;5.868;2023-05-10T05:47:20;23.54;53.17
66962;HTU21D;53897;51.126;5.868;2023-05-10T05:49:45;23.52;53.28
66962;HTU21D;53897;51.126;5.868;2023-05-10T05:52:11;23.52;53.40
66962;HTU21D;53897;51.126;5.868;2023-05-10T05:54:37;23.51;53.49
66962;HTU21D;53897;51.126;5.868;2023-05-10T05:57:02;23.47;53.60
66962;HTU21D;53897;51.126;5.868;2023-05-10T05:59:28;23.44;53.69
66962;HTU21D;53897;51.126;5.868;2023-05-10T06:01:54;23.43;53.75
66962;HTU21D;53897;51.126;5.868;2023-05-10T06:04:20;23.39;53.81
66962;HTU21D;53897;51.126;5.868;2023-05-10T06:06:45;23.38;53.85
66962;HTU21D;53897;51.126;5.868;2023-05-10T06:09:12;23.38;53.86
66962;HTU21D;53897;51.126;5.868;2023-05-10T06:11:37;23.38;53.84
66962;HTU21D;53897;51.126;5.868;2023-05-10T06:14:04;23.40;53.77
66962;HTU21D;53897;51.126;5.868;2023-05-10T06:16:30;23.43;53.66
66962;HTU21D;53897;51.126;5.868;2023-05-10T06:18:57;23.44;53.66
66962;HTU21D;53897;51.126;5.868;2023-05-10T06:21:23;23.46;53.74
66962;HTU21D;53897;51.126;5.868;2023-05-10T06:23:48;23.47;53.65
66962;HTU21D;53897;51.126;5.868;2023-05-10T06:26:14;23.49;53.61
66962;HTU21D;53897;51.126;5.868;2023-05-10T06:28:40;23.52;53.58
66962;HTU21D;53897;51.126;5.868;2023-05-10T06:31:06;23.52;53.49
66962;HTU21D;53897;51.126;5.868;2023-05-10T06:33:33;23.52;53.45
66962;HTU21D;53897;51.126;5.868;2023-05-10T06:35:59;23.55;53.43
66962;HTU21D;53897;51.126;5.868;2023-05-10T06:38:25;23.54;53.45
66962;HTU21D;53897;51.126;5.868;2023-05-10T06:40:50;23.55;53.46
66962;HTU21D;53897;51.126;5.868;2023-05-10T06:43:16;23.56;53.43
66962;HTU21D;53897;51.126;5.868;2023-05-10T06:45:42;23.56;53.40
66962;HTU21D;53897;51.126;5.868;2023-05-10T06:48:08;23.56;53.38
66962;HTU21D;53897;51.126;5.868;2023-05-10T06:50:33;23.57;53.39
66962;HTU21D;53897;51.126;5.868;2023-05-10T06:53:00;23.58;53.37
66962;HTU21D;53897;51.126;5.868;2023-05-10T06:55:27;23.59;53.40
66962;HTU21D;53897;51.126;5.868;2023-05-10T06:57:53;23.60;53.38
66962;HTU21D;53897;51.126;5.868;2023-05-10T07:00:19;23.57;53.46
66962;HTU21D;53897;51.126;5.868;2023-05-10T07:02:45;23.56;53.57
66962;HTU21D;53897;51.126;5.868;2023-05-10T07:05:11;23.54;53.62
66962;HTU21D;53897;51.126;5.868;2023-05-10T07:07:37;23.53;53.64
66962;HTU21D;53897;51.126;5.868;2023-05-10T07:10:03;23.52;53.68
66962;HTU21D;53897;51.126;5.868;2023-05-10T07:12:29;23.53;53.68
66962;HTU21D;53897;51.126;5.868;2023-05-10T07:14:54;23.54;53.68
66962;HTU21D;53897;51.126;5.868;2023-05-10T07:17:20;23.54;53.65
66962;HTU21D;53897;51.126;5.868;2023-05-10T07:19:46;23.54;53.62
66962;HTU21D;53897;51.126;5.868;2023-05-10T07:22:11;23.57;53.60
66962;HTU21D;53897;51.126;5.868;2023-05-10T07:24:37;23.58;53.60
66962;HTU21D;53897;51.126;5.868;2023-05-10T07:27:03;23.59;53.56
66962;HTU21D;53897;51.126;5.868;2023-05-10T07:29:29;23.59;53.56
66962;HTU21D;53897;51.126;5.868;2023-05-10T07:31:55;23.60;53.55
66962;HTU21D;53897;51.126;5.868;2023-05-10T07:34:21;23.61;53.47
66962;HTU21D;53897;51.126;5.868;2023-05-10T07:36:47;23.61;53.49
66962;HTU21D;53897;51.126;5.868;2023-05-10T07:39:12;23.62;53.46
66962;HTU21D;53897;51.126;5.868;2023-05-10T07:41:38;23.64;53.46
66962;HTU21D;53897;51.126;5.868;2023-05-10T07:44:04;23.62;53.49
66962;HTU21D;53897;51.126;5.868;2023-05-10T07:46:30;23.64;53.49
66962;HTU21D;53897;51.126;5.868;2023-05-10T07:48:56;23.65;53.44
66962;HTU21D;53897;51.126;5.868;2023-05-10T07:51:22;23.65;53.41
66962;HTU21D;53897;51.126;5.868;2023-05-10T07:53:47;23.65;53.36
66962;HTU21D;53897;51.126;5.868;2023-05-10T07:58:47;23.64;53.38
66962;HTU21D;53897;51.126;5.868;2023-05-10T08:01:12;23.61;53.43
66962;HTU21D;53897;51.126;5.868;2023-05-10T08:03:38;23.58;53.56
66962;HTU21D;53897;51.126;5.868;2023-05-10T08:06:04;23.57;53.57
66962;HTU21D;53897;51.126;5.868;2023-05-10T08:08:30;23.57;53.55
66962;HTU21D;53897;51.126;5.868;2023-05-10T08:10:55;23.56;53.61
66962;HTU21D;53897;51.126;5.868;2023-05-10T08:13:21;23.55;53.70
66962;HTU21D;53897;51.126;5.868;2023-05-10T08:15:47;23.55;53.72
66962;HTU21D;53897;51.126;5.868;2023-05-10T08:18:12;23.57;53.67
66962;HTU21D;53897;51.126;5.868;2023-05-10T08:20:38;23.57;53.59
66962;HTU21D;53897;51.126;5.868;2023-05-10T08:23:04;23.58;53.48
66962;HTU21D;53897;51.126;5.868;2023-05-10T08:25:31;23.58;53.43
66962;HTU21D;53897;51.126;5.868;2023-05-10T08:27:56;23.58;53.43
66962;HTU21D;53897;51.126;5.868;2023-05-10T08:30:22;23.59;53.45
66962;HTU21D;53897;51.126;5.868;2023-05-10T08:32:48;23.61;53.43
66962;HTU21D;53897;51.126;5.868;2023-05-10T08:35:15;23.61;53.42
66962;HTU21D;53897;51.126;5.868;2023-05-10T08:37:40;23.61;53.42
66962;HTU21D;53897;51.126;5.868;2023-05-10T08:40:06;23.64;53.41
66962;HTU21D;53897;51.126;5.868;2023-05-10T08:42:36;23.64;53.46
66962;HTU21D;53897;51.126;5.868;2023-05-10T08:45:07;23.62;53.52
66962;HTU21D;53897;51.126;5.868;2023-05-10T08:47:36;23.65;53.59
66962;HTU21D;53897;51.126;5.868;2023-05-10T08:50:03;23.65;53.61
66962;HTU21D;53897;51.126;5.868;2023-05-10T08:52:30;23.66;53.58
66962;HTU21D;53897;51.126;5.868;2023-05-10T08:54:56;23.66;53.56
66962;HTU21D;53897;51.126;5.868;2023-05-10T08:57:22;23.66;53.45
66962;HTU21D;53897;51.126;5.868;2023-05-10T08:59:48;23.65;53.36
66962;HTU21D;53897;51.126;5.868;2023-05-10T09:02:14;23.65;53.33
66962;HTU21D;53897;51.126;5.868;2023-05-10T09:04:39;23.65;53.30
66962;HTU21D;53897;51.126;5.868;2023-05-10T09:07:06;23.66;53.26
66962;HTU21D;53897;51.126;5.868;2023-05-10T09:09:33;23.65;53.30
66962;HTU21D;53897;51.126;5.868;2023-05-10T09:11:59;23.65;53.20
66962;HTU21D;53897;51.126;5.868;2023-05-10T09:14:25;23.66;53.01
66962;HTU21D;53897;51.126;5.868;2023-05-10T09:16:53;23.65;52.90
66962;HTU21D;53897;51.126;5.868;2023-05-10T09:19:20;23.65;52.83
66962;HTU21D;53897;51.126;5.868;2023-05-10T09:21:46;23.64;52.96
66962;HTU21D;53897;51.126;5.868;2023-05-10T09:24:11;23.66;53.10
66962;HTU21D;53897;51.126;5.868;2023-05-10T09:26:46;23.66;53.05
66962;HTU21D;53897;51.126;5.868;2023-05-10T09:29:14;23.65;53.01
66962;HTU21D;53897;51.126;5.868;2023-05-10T09:31:49;23.61;53.08
66962;HTU21D;53897;51.126;5.868;2023-05-10T09:34:31;23.56;53.24
66962;HTU21D;53897;51.126;5.868;2023-05-10T09:37:01;23.51;53.40
66962;HTU21D;53897;51.126;5.868;2023-05-10T09:39:38;23.49;53.53
66962;HTU21D;53897;51.126;5.868;2023-05-10T09:42:08;23.47;53.52
66962;HTU21D;53897;51.126;5.868;2023-05-10T09:44:35;23.47;53.52
66962;HTU21D;53897;51.126;5.868;2023-05-10T09:47:01;23.45;53.53
66962;HTU21D;53897;51.126;5.868;2023-05-10T09:49:27;23.45;53.55
66962;HTU21D;53897;51.126;5.868;2023-05-10T09:52:04;23.46;53.56
66962;HTU21D;53897;51.126;5.868;2023-05-10T09:54:30;23.45;53.59
66962;HTU21D;53897;51.126;5.868;2023-05-10T09:56:57;23.45;53.57
66962;HTU21D;53897;51.126;5.868;2023-05-10T09:59:25;23.51;53.51
66962;HTU21D;53897;51.126;5.868;2023-05-10T10:01:53;23.51;53.46
66962;HTU21D;53897;51.126;5.868;2023-05-10T10:04:21;23.55;53.46
66962;HTU21D;53897;51.126;5.868;2023-05-10T10:06:47;23.56;53.42
66962;HTU21D;53897;51.126;5.868;2023-05-10T10:09:24;23.57;53.36
66962;HTU21D;53897;51.126;5.868;2023-05-10T10:11:50;23.58;53.30
66962;HTU21D;53897;51.126;5.868;2023-05-10T10:14:18;23.60;53.24
66962;HTU21D;53897;51.126;5.868;2023-05-10T10:16:44;23.60;53.22
66962;HTU21D;53897;51.126;5.868;2023-05-10T10:19:10;23.61;53.21
66962;HTU21D;53897;51.126;5.868;2023-05-10T10:21:36;23.62;53.22
66962;HTU21D;53897;51.126;5.868;2023-05-10T10:24:02;23.64;53.27
66962;HTU21D;53897;51.126;5.868;2023-05-10T10:26:30;23.64;53.31
66962;HTU21D;53897;51.126;5.868;2023-05-10T10:29:24;23.65;53.34
66962;HTU21D;53897;51.126;5.868;2023-05-10T10:32:18;23.66;53.30
66962;HTU21D;53897;51.126;5.868;2023-05-10T10:34:45;23.67;53.29
66962;HTU21D;53897;51.126;5.868;2023-05-10T10:37:11;23.67;53.35
66962;HTU21D;53897;51.126;5.868;2023-05-10T10:39:36;23.66;53.35
66962;HTU21D;53897;51.126;5.868;2023-05-10T10:42:04;23.68;53.39
66962;HTU21D;53897;51.126;5.868;2023-05-10T10:50:08;23.65;53.83
66962;HTU21D;53897;51.126;5.868;2023-05-10T10:52:39;23.65;53.85
66962;HTU21D;53897;51.126;5.868;2023-05-10T10:55:11;23.67;53.81
66962;HTU21D;53897;51.126;5.868;2023-05-10T11:00:27;23.68;53.75
66962;HTU21D;53897;51.126;5.868;2023-05-10T11:02:59;23.69;53.76
66962;HTU21D;53897;51.126;5.868;2023-05-10T11:05:42;23.70;53.78
66962;HTU21D;53897;51.126;5.868;2023-05-10T11:08:18;23.71;53.75
66962;HTU21D;53897;51.126;5.868;2023-05-10T11:13:29;23.72;53.78
66962;HTU21D;53897;51.126;5.868;2023-05-10T11:15:56;23.73;53.76
66962;HTU21D;53897;51.126;5.868;2023-05-10T11:18:30;23.74;53.70
66962;HTU21D;53897;51.126;5.868;2023-05-10T11:21:02;23.75;53.62
66962;HTU21D;53897;51.126;5.868;2023-05-10T11:23:51;23.75;53.61
66962;HTU21D;53897;51.126;5.868;2023-05-10T11:26:17;23.76;53.54
66962;HTU21D;53897;51.126;5.868;2023-05-10T11:28:47;23.76;53.49
66962;HTU21D;53897;51.126;5.868;2023-05-10T11:31:15;23.76;53.56
66962;HTU21D;53897;51.126;5.868;2023-05-10T11:33:53;23.77;53.58
66962;HTU21D;53897;51.126;5.868;2023-05-10T11:36:28;23.76;53.56
66962;HTU21D;53897;51.126;5.868;2023-05-10T11:38:56;23.77;53.54
66962;HTU21D;53897;51.126;5.868;2023-05-10T11:41:23;23.77;53.52
66962;HTU21D;53897;51.126;5.868;2023-05-10T11:43:51;23.77;53.49
66962;HTU21D;53897;51.126;5.868;2023-05-10T11:46:20;23.80;53.45
66962;HTU21D;53897;51.126;5.868;2023-05-10T11:48:51;23.80;53.48
66962;HTU21D;53897;51.126;5.868;2023-05-10T11:51:23;23.80;53.52
66962;HTU21D;53897;51.126;5.868;2023-05-10T11:53:52;23.81;53.54
66962;HTU21D;53897;51.126;5.868;2023-05-10T11:56:18;23.81;53.54
66962;HTU21D;53897;51.126;5.868;2023-05-10T11:58:54;23.82;53.53
66962;HTU21D;53897;51.126;5.868;2023-05-10T12:01:21;23.83;53.52
66962;HTU21D;53897;51.126;5.868;2023-05-10T12:03:50;23.84;53.50
66962;HTU21D;53897;51.126;5.868;2023-05-10T12:06:18;23.85;53.48
66962;HTU21D;53897;51.126;5.868;2023-05-10T12:08:46;23.84;53.47
66962;HTU21D;53897;51.126;5.868;2023-05-10T12:11:14;23.86;53.45
66962;HTU21D;53897;51.126;5.868;2023-05-10T12:13:44;23.87;53.46
66962;HTU21D;53897;51.126;5.868;2023-05-10T12:16:18;23.88;53.47
66962;HTU21D;53897;51.126;5.868;2023-05-10T12:18:47;23.89;53.46
66962;HTU21D;53897;51.126;5.868;2023-05-10T12:21:15;23.88;53.46
66962;HTU21D;53897;51.126;5.868;2023-05-10T12:23:41;23.90;53.47
66962;HTU21D;53897;51.126;5.868;2023-05-10T12:26:09;23.91;53.46
66962;HTU21D;53897;51.126;5.868;2023-05-10T12:28:36;23.92;53.46
66962;HTU21D;53897;51.126;5.868;2023-05-10T12:31:02;23.91;53.46
66962;HTU21D;53897;51.126;5.868;2023-05-10T12:33:42;23.94;53.46
66962;HTU21D;53897;51.126;5.868;2023-05-10T12:36:09;23.95;53.46
66962;HTU21D;53897;51.126;5.868;2023-05-10T12:38:40;23.96;53.44
66962;HTU21D;53897;51.126;5.868;2023-05-10T12:41:10;23.96;53.43
66962;HTU21D;53897;51.126;5.868;2023-05-10T12:43:37;23.96;53.41
66962;HTU21D;53897;51.126;5.868;2023-05-10T12:48:32;23.99;53.39
66962;HTU21D;53897;51.126;5.868;2023-05-10T12:51:00;24.00;53.36
66962;HTU21D;53897;51.126;5.868;2023-05-10T12:53:27;24.01;53.35
66962;HTU21D;53897;51.126;5.868;2023-05-10T12:55:52;24.00;53.33
66962;HTU21D;53897;51.126;5.868;2023-05-10T12:58:19;24.00;53.30
66962;HTU21D;53897;51.126;5.868;2023-05-10T13:00:45;24.00;53.25
66962;HTU21D;53897;51.126;5.868;2023-05-10T13:03:11;24.01;53.23
66962;HTU21D;53897;51.126;5.868;2023-05-10T13:05:37;24.01;53.25
66962;HTU21D;53897;51.126;5.868;2023-05-10T13:08:03;24.03;53.25
66962;HTU21D;53897;51.126;5.868;2023-05-10T13:10:32;24.03;53.26
66962;HTU21D;53897;51.126;5.868;2023-05-10T13:12:58;24.03;53.29
66962;HTU21D;53897;51.126;5.868;2023-05-10T13:15:25;24.02;53.36
66962;HTU21D;53897;51.126;5.868;2023-05-10T13:17:51;24.03;53.38
66962;HTU21D;53897;51.126;5.868;2023-05-10T13:20:17;24.04;53.46
66962;HTU21D;53897;51.126;5.868;2023-05-10T13:22:43;24.05;53.65
66962;HTU21D;53897;51.126;5.868;2023-05-10T13:25:10;24.06;53.77
66962;HTU21D;53897;51.126;5.868;2023-05-10T13:27:36;24.06;54.11
66962;HTU21D;53897;51.126;5.868;2023-05-10T13:30:03;24.09;54.91
66962;HTU21D;53897;51.126;5.868;2023-05-10T13:32:30;24.10;55.28
66962;HTU21D;53897;51.126;5.868;2023-05-10T13:34:56;24.11;55.42
66962;HTU21D;53897;51.126;5.868;2023-05-10T13:37:22;24.12;55.46
66962;HTU21D;53897;51.126;5.868;2023-05-10T13:39:48;24.13;55.43
66962;HTU21D;53897;51.126;5.868;2023-05-10T13:42:14;24.15;55.43
66962;HTU21D;53897;51.126;5.868;2023-05-10T13:44:40;24.13;55.38
66962;HTU21D;53897;51.126;5.868;2023-05-10T13:47:06;24.10;55.37
66962;HTU21D;53897;51.126;5.868;2023-05-10T13:49:32;24.08;55.42
66962;HTU21D;53897;51.126;5.868;2023-05-10T13:52:00;24.03;55.48
66962;HTU21D;53897;51.126;5.868;2023-05-10T13:54:34;24.05;55.41
66962;HTU21D;53897;51.126;5.868;2023-05-10T13:57:01;24.06;55.33
66962;HTU21D;53897;51.126;5.868;2023-05-10T13:59:28;24.10;55.22
66962;HTU21D;53897;51.126;5.868;2023-05-10T14:01:54;24.11;55.13
66962;HTU21D;53897;51.126;5.868;2023-05-10T14:04:20;24.14;55.05
66962;HTU21D;53897;51.126;5.868;2023-05-10T14:06:46;24.16;54.97
66962;HTU21D;53897;51.126;5.868;2023-05-10T14:09:12;24.17;54.88
66962;HTU21D;53897;51.126;5.868;2023-05-10T14:11:38;24.18;54.83
66962;HTU21D;53897;51.126;5.868;2023-05-10T14:14:07;24.20;54.76
66962;HTU21D;53897;51.126;5.868;2023-05-10T14:16:33;24.21;54.70
66962;HTU21D;53897;51.126;5.868;2023-05-10T14:18:58;24.23;54.66
66962;HTU21D;53897;51.126;5.868;2023-05-10T14:21:24;24.24;54.65
66962;HTU21D;53897;51.126;5.868;2023-05-10T14:23:50;24.23;54.68
66962;HTU21D;53897;51.126;5.868;2023-05-10T14:26:15;24.24;54.71
66962;HTU21D;53897;51.126;5.868;2023-05-10T14:28:41;24.24;54.74
66962;HTU21D;53897;51.126;5.868;2023-05-10T14:31:07;24.24;54.71
66962;HTU21D;53897;51.126;5.868;2023-05-10T14:33:33;24.25;54.70
66962;HTU21D;53897;51.126;5.868;2023-05-10T14:35:58;24.26;54.65
66962;HTU21D;53897;51.126;5.868;2023-05-10T14:38:25;24.27;54.59
66962;HTU21D;53897;51.126;5.868;2023-05-10T14:40:52;24.28;54.55
66962;HTU21D;53897;51.126;5.868;2023-05-10T14:43:17;24.30;54.49
66962;HTU21D;53897;51.126;5.868;2023-05-10T14:45:43;24.30;54.41
66962;HTU21D;53897;51.126;5.868;2023-05-10T14:48:10;24.31;54.39
66962;HTU21D;53897;51.126;5.868;2023-05-10T14:50:41;24.32;54.38
66962;HTU21D;53897;51.126;5.868;2023-05-10T14:53:06;24.33;54.36
66962;HTU21D;53897;51.126;5.868;2023-05-10T14:55:32;24.34;54.34
66962;HTU21D;53897;51.126;5.868;2023-05-10T14:57:58;24.35;54.33
66962;HTU21D;53897;51.126;5.868;2023-05-10T15:00:24;24.36;54.31
66962;HTU21D;53897;51.126;5.868;2023-05-10T15:02:49;24.38;54.30
66962;HTU21D;53897;51.126;5.868;2023-05-10T15:05:15;24.38;54.26
66962;HTU21D;53897;51.126;5.868;2023-05-10T15:07:41;24.40;54.15
66962;HTU21D;53897;51.126;5.868;2023-05-10T15:10:09;24.38;54.16
66962;HTU21D;53897;51.126;5.868;2023-05-10T15:12:36;24.36;54.14
66962;HTU21D;53897;51.126;5.868;2023-05-10T15:15:02;24.38;54.18
66962;HTU21D;53897;51.126;5.868;2023-05-10T15:17:28;24.34;54.29
66962;HTU21D;53897;51.126;5.868;2023-05-10T15:19:54;24.33;54.35
66962;HTU21D;53897;51.126;5.868;2023-05-10T15:22:19;24.31;54.42
66962;HTU21D;53897;51.126;5.868;2023-05-10T15:24:46;24.31;54.49
66962;HTU21D;53897;51.126;5.868;2023-05-10T15:27:12;24.29;54.57
66962;HTU21D;53897;51.126;5.868;2023-05-10T15:29:37;24.28;54.58
66962;HTU21D;53897;51.126;5.868;2023-05-10T15:32:03;24.26;54.61
66962;HTU21D;53897;51.126;5.868;2023-05-10T15:34:29;24.27;54.61
66962;HTU21D;53897;51.126;5.868;2023-05-10T15:36:55;24.27;54.57
66962;HTU21D;53897;51.126;5.868;2023-05-10T15:39:20;24.27;54.55
66962;HTU21D;53897;51.126;5.868;2023-05-10T15:41:46;24.29;54.51
66962;HTU21D;53897;51.126;5.868;2023-05-10T15:44:12;24.31;54.46